Time;durP1;ratioP1;P1;durP2;ratioP2;P2;SDS_P1;SDS_P2;PMS_P1;PMS_P2;Temp;Humidity;BMP_temperature;BMP_pressure;BME280_temperature;BME280_humidity;BME280_pressure;Samples;Min_cycle;Max_cycle;Signal;HPM_P1;HPM_P2
2023/08/26 00:01:53;;;;;;;20.85;12.23;;;;;;;;;;6221305;28;20048;-80
2023/08/26 00:04:55;;;;;;;21.50;12.60;;;;;;;;;;6215351;28;20668;-81
2023/08/26 00:07:57;;;;;;;22.42;12.15;;;;;;;;;;6232458;28;20409;-79
2023/08/26 00:10:59;;;;;;;18.50;11.10;;;;;;;;;;6235979;28;20423;-81
2023/08/26 00:14:00;;;;;;;19.65;11.43;;;;;;;;;;6212828;28;20452;-80
2023/08/26 00:17:04;;;;;;;22.08;11.95;;;;;;;;;;6210058;28;20069;-79
2023/08/26 00:20:08;;;;;;;19.35;12.25;;;;;;;;;;6237380;28;20110;-80
2023/08/26 00:23:10;;;;;;;19.83;11.60;;;;;;;;;;6237547;28;20046;-80
2023/08/26 00:26:11;;;;;;;21.33;11.50;;;;;;;;;;6233766;28;20167;-81
2023/08/26 00:29:14;;;;;;;17.38;11.32;;;;;;;;;;6233815;28;20053;-80
2023/08/26 00:32:15;;;;;;;18.35;10.82;;;;;;;;;;6219059;28;20038;-79
2023/08/26 00:35:17;;;;;;;20.80;11.80;;;;;;;;;;6232368;28;20470;-81
2023/08/26 00:38:19;;;;;;;19.48;12.15;;;;;;;;;;6208769;28;20084;-79
2023/08/26 00:41:20;;;;;;;20.08;11.98;;;;;;;;;;6199338;28;20052;-81
2023/08/26 00:44:22;;;;;;;18.75;11.70;;;;;;;;;;6235097;28;20045;-80
2023/08/26 00:47:25;;;;;;;20.27;12.63;;;;;;;;;;6216759;28;20053;-80
2023/08/26 00:50:28;;;;;;;;;;;;;;;;;;6199525;28;20049;-79
2023/08/26 00:53:30;;;;;;;21.83;12.10;;;;;;;;;;6196080;28;19922;-79
2023/08/26 00:56:32;;;;;;;21.42;13.38;;;;;;;;;;6219284;28;20531;-80
2023/08/26 00:59:36;;;;;;;23.35;12.77;;;;;;;;;;6211966;28;20123;-79
2023/08/26 01:02:37;;;;;;;19.58;12.80;;;;;;;;;;6214417;28;20041;-78
2023/08/26 01:05:39;;;;;;;23.23;13.38;;;;;;;;;;6229901;28;20048;-81
2023/08/26 01:08:41;;;;;;;24.48;14.55;;;;;;;;;;6214950;28;20058;-79
2023/08/26 01:11:56;;;;;;;23.95;14.57;;;;;;;;;;6232193;28;20054;-80
2023/08/26 01:15:07;;;;;;;22.75;15.32;;;;;;;;;;6232643;28;20045;-80
2023/08/26 01:18:13;;;;;;;25.23;14.82;;;;;;;;;;6231968;28;20523;-78
2023/08/26 01:21:19;;;;;;;22.85;15.35;;;;;;;;;;6230257;28;20060;-80
2023/08/26 01:24:21;;;;;;;25.27;16.40;;;;;;;;;;6215505;28;20056;-80
2023/08/26 01:27:23;;;;;;;25.27;14.73;;;;;;;;;;6208558;28;20114;-79
2023/08/26 01:30:27;;;;;;;22.35;15.90;;;;;;;;;;6221633;28;20041;-81
2023/08/26 01:33:35;;;;;;;25.08;15.70;;;;;;;;;;6190999;28;20061;-79
2023/08/26 01:36:43;;;;;;;26.45;15.55;;;;;;;;;;6216991;28;20046;-80
2023/08/26 01:39:48;;;;;;;24.55;16.52;;;;;;;;;;6229548;28;20050;-79
2023/08/26 01:42:52;;;;;;;29.33;16.20;;;;;;;;;;6214937;28;20052;-80
2023/08/26 01:45:54;;;;;;;26.60;16.48;;;;;;;;;;6214546;28;20076;-79
2023/08/26 01:48:55;;;;;;;27.67;17.10;;;;;;;;;;6215538;28;20060;-79
2023/08/26 01:51:57;;;;;;;25.83;17.33;;;;;;;;;;6229815;28;20052;-80
2023/08/26 01:54:59;;;;;;;30.08;17.83;;;;;;;;;;6229638;28;20123;-80
2023/08/26 01:58:00;;;;;;;28.73;18.98;;;;;;;;;;6229542;28;20050;-80
2023/08/26 02:01:06;;;;;;;28.35;18.65;;;;;;;;;;6195429;28;20034;-79
2023/08/26 02:04:08;;;;;;;28.52;18.17;;;;;;;;;;6210241;28;21170;-80
2023/08/26 02:07:09;;;;;;;29.23;18.23;;;;;;;;;;6230207;28;20360;-79
2023/08/26 02:10:12;;;;;;;30.43;18.87;;;;;;;;;;6219042;28;20053;-80
2023/08/26 02:13:14;;;;;;;28.45;18.90;;;;;;;;;;6224002;28;20052;-80
2023/08/26 02:16:16;;;;;;;28.30;18.80;;;;;;;;;;6206156;28;20054;-80
2023/08/26 02:19:17;;;;;;;29.87;19.67;;;;;;;;;;6216734;28;20106;-80
2023/08/26 02:22:19;;;;;;;32.58;18.95;;;;;;;;;;6208854;28;20038;-80
2023/08/26 02:25:21;;;;;;;31.20;19.15;;;;;;;;;;6223334;28;20088;-81
2023/08/26 02:28:24;;;;;;;27.48;18.77;;;;;;;;;;6229597;28;20504;-81
2023/08/26 02:31:26;;;;;;;29.17;18.05;;;;;;;;;;6227326;28;20057;-80
2023/08/26 02:34:27;;;;;;;32.03;19.17;;;;;;;;;;6198024;28;20050;-80
2023/08/26 02:37:29;;;;;;;27.98;18.40;;;;;;;;;;6222597;28;20050;-81
2023/08/26 02:40:31;;;;;;;29.65;20.73;;;;;;;;;;6228027;28;20068;-80
2023/08/26 02:43:33;;;;;;;28.67;19.20;;;;;;;;;;6229169;28;20052;-79
2023/08/26 02:46:34;;;;;;;28.10;18.65;;;;;;;;;;6220366;28;20081;-80
2023/08/26 02:49:36;;;;;;;28.58;18.00;;;;;;;;;;6203535;28;20073;-80
2023/08/26 02:52:37;;;;;;;27.80;17.92;;;;;;;;;;6206709;28;20496;-80
2023/08/26 02:55:40;;;;;;;25.33;16.73;;;;;;;;;;6220864;28;20630;-81
2023/08/26 02:58:42;;;;;;;23.90;15.32;;;;;;;;;;6223872;28;20048;-79
2023/08/26 03:01:43;;;;;;;23.48;15.15;;;;;;;;;;6226431;28;20042;-81
2023/08/26 03:04:45;;;;;;;20.77;14.05;;;;;;;;;;6209519;28;20042;-81
2023/08/26 03:07:48;;;;;;;20.73;14.45;;;;;;;;;;6222913;28;20041;-80
2023/08/26 03:10:58;;;;;;;21.75;14.68;;;;;;;;;;6210373;28;20065;-79
2023/08/26 03:13:59;;;;;;;23.67;15.57;;;;;;;;;;6193268;28;20440;-79
2023/08/26 03:17:01;;;;;;;23.50;15.27;;;;;;;;;;6211559;28;20355;-81
2023/08/26 03:20:03;;;;;;;20.55;15.70;;;;;;;;;;6226146;28;20049;-80
2023/08/26 03:23:05;;;;;;;26.45;17.38;;;;;;;;;;6228065;28;20065;-81
2023/08/26 03:26:06;;;;;;;22.67;15.32;;;;;;;;;;6199882;28;20058;-81
2023/08/26 03:29:09;;;;;;;25.48;15.73;;;;;;;;;;6187026;28;20046;-81
2023/08/26 03:32:11;;;;;;;19.85;14.25;;;;;;;;;;6200847;28;20092;-80
2023/08/26 03:35:14;;;;;;;16.42;12.20;;;;;;;;;;6210589;28;20602;-81
2023/08/26 03:38:15;;;;;;;16.95;10.15;;;;;;;;;;6218898;28;20527;-81
2023/08/26 03:41:17;;;;;;;14.90;8.90;;;;;;;;;;6236684;28;20543;-81
2023/08/26 03:44:19;;;;;;;11.43;9.10;;;;;;;;;;6204523;28;20064;-79
2023/08/26 03:47:22;;;;;;;10.90;8.60;;;;;;;;;;6224385;28;20049;-80
2023/08/26 03:50:24;;;;;;;12.40;8.40;;;;;;;;;;6232026;28;20045;-80
2023/08/26 03:53:27;;;;;;;12.68;8.40;;;;;;;;;;6219002;28;20053;-80
2023/08/26 03:56:29;;;;;;;;;;;;;;;;;;6239494;28;20261;-82
2023/08/26 03:59:30;;;;;;;7.15;4.07;;;;;;;;;;6204977;28;20018;-82
2023/08/26 04:02:32;;;;;;;7.47;3.70;;;;;;;;;;6219240;28;20105;-81
2023/08/26 04:05:34;;;;;;;4.82;3.40;;;;;;;;;;6233895;28;20049;-79
2023/08/26 04:08:35;;;;;;;13.05;3.80;;;;;;;;;;6235479;28;20416;-80
2023/08/26 04:11:37;;;;;;;4.63;3.38;;;;;;;;;;6236011;28;20045;-79
2023/08/26 04:14:39;;;;;;;9.52;3.60;;;;;;;;;;6217284;28;20049;-78
2023/08/26 04:17:41;;;;;;;5.50;3.30;;;;;;;;;;6220646;28;20060;-79
2023/08/26 04:20:43;;;;;;;6.05;3.85;;;;;;;;;;6236653;28;20555;-79
2023/08/26 04:23:45;;;;;;;4.93;3.50;;;;;;;;;;6235425;28;20058;-77
2023/08/26 04:26:47;;;;;;;8.15;5.60;;;;;;;;;;6237084;28;20116;-78
2023/08/26 04:29:50;;;;;;;10.52;6.47;;;;;;;;;;6223141;28;20046;-80
2023/08/26 04:32:52;;;;;;;9.18;6.53;;;;;;;;;;6212790;28;20038;-80
2023/08/26 04:35:53;;;;;;;9.88;6.22;;;;;;;;;;6211217;28;20052;-78
2023/08/26 04:38:56;;;;;;;7.85;5.32;;;;;;;;;;6199453;28;20046;-79
2023/08/26 04:41:58;;;;;;;6.88;4.13;;;;;;;;;;6211079;28;20053;-79
2023/08/26 04:45:00;;;;;;;10.45;4.30;;;;;;;;;;6191175;28;20088;-78
2023/08/26 04:48:02;;;;;;;6.07;3.30;;;;;;;;;;6231968;28;20423;-78
2023/08/26 04:51:04;;;;;;;8.32;3.80;;;;;;;;;;6196037;28;20045;-78
2023/08/26 04:54:07;;;;;;;4.50;3.92;;;;;;;;;;6232702;28;20037;-81
2023/08/26 04:57:09;;;;;;;3.78;3.38;;;;;;;;;;6235628;28;20116;-78
2023/08/26 05:00:11;;;;;;;5.05;3.97;;;;;;;;;;6232567;28;20080;-78
2023/08/26 05:03:13;;;;;;;6.20;3.58;;;;;;;;;;6210110;28;20455;-79
2023/08/26 05:06:15;;;;;;;5.47;3.83;;;;;;;;;;6227393;28;20067;-80
2023/08/26 05:09:16;;;;;;;6.25;3.05;;;;;;;;;;6215416;28;20056;-78
2023/08/26 05:12:18;;;;;;;5.43;3.03;;;;;;;;;;6217652;28;20042;-79
2023/08/26 05:15:20;;;;;;;5.40;3.10;;;;;;;;;;6226207;28;22345;-79
2023/08/26 05:18:22;;;;;;;4.25;2.50;;;;;;;;;;6190058;28;20064;-79
2023/08/26 05:21:23;;;;;;;6.75;2.75;;;;;;;;;;6205312;28;21836;-79
2023/08/26 05:24:26;;;;;;;3.50;2.72;;;;;;;;;;6226747;28;20052;-79
2023/08/26 05:27:31;;;;;;;4.20;2.70;;;;;;;;;;6213668;28;20103;-79
2023/08/26 05:30:33;;;;;;;4.40;2.78;;;;;;;;;;6232378;28;20132;-80
2023/08/26 05:33:36;;;;;;;4.20;2.73;;;;;;;;;;6210913;28;20057;-80
2023/08/26 05:36:38;;;;;;;;;;;;;;;;;;6192844;28;20611;-79
2023/08/26 05:39:39;;;;;;;2.72;2.03;;;;;;;;;;6230709;28;19925;-81
2023/08/26 05:42:41;;;;;;;3.13;2.70;;;;;;;;;;6231363;28;20498;-78
2023/08/26 05:45:43;;;;;;;4.20;2.90;;;;;;;;;;6197552;28;20053;-79
2023/08/26 05:48:45;;;;;;;7.10;3.30;;;;;;;;;;6224545;28;20049;-80
2023/08/26 05:51:47;;;;;;;3.20;2.40;;;;;;;;;;6204404;28;20687;-80
2023/08/26 05:54:49;;;;;;;5.10;2.43;;;;;;;;;;6227553;28;20053;-78
2023/08/26 05:57:51;;;;;;;6.15;2.20;;;;;;;;;;6207171;28;20439;-78
2023/08/26 06:00:52;;;;;;;3.35;2.10;;;;;;;;;;6218647;28;20042;-78
2023/08/26 06:03:55;;;;;;;4.72;2.40;;;;;;;;;;6211596;28;20041;-79
2023/08/26 06:06:59;;;;;;;4.53;2.20;;;;;;;;;;6189877;28;20038;-80
2023/08/26 06:10:01;;;;;;;6.47;2.70;;;;;;;;;;6209467;28;20541;-79
2023/08/26 06:13:05;;;;;;;3.30;1.90;;;;;;;;;;6200028;28;20045;-79
2023/08/26 06:16:06;;;;;;;2.58;2.17;;;;;;;;;;6212979;28;20103;-78
2023/08/26 06:19:08;;;;;;;4.82;1.95;;;;;;;;;;6211269;28;20461;-79
2023/08/26 06:22:10;;;;;;;3.13;2.38;;;;;;;;;;6205820;28;20052;-79
2023/08/26 06:25:12;;;;;;;3.08;2.20;;;;;;;;;;6230232;28;20049;-79
2023/08/26 06:28:14;;;;;;;3.83;2.03;;;;;;;;;;6216731;28;20341;-79
2023/08/26 06:31:15;;;;;;;3.63;1.83;;;;;;;;;;6223720;28;20044;-81
2023/08/26 06:34:18;;;;;;;3.38;1.67;;;;;;;;;;6226747;28;20044;-79
2023/08/26 06:37:21;;;;;;;4.10;1.52;;;;;;;;;;6228442;28;20037;-79
2023/08/26 06:40:22;;;;;;;2.05;1.65;;;;;;;;;;6193966;28;20056;-79
2023/08/26 06:43:24;;;;;;;2.67;1.60;;;;;;;;;;6227298;28;20045;-79
2023/08/26 06:46:26;;;;;;;2.92;1.70;;;;;;;;;;6198374;28;20787;-79
2023/08/26 06:49:27;;;;;;;2.47;1.40;;;;;;;;;;6222871;28;20211;-79
2023/08/26 06:52:30;;;;;;;3.58;1.27;;;;;;;;;;6203945;28;20055;-77
2023/08/26 06:55:31;;;;;;;1.53;1.23;;;;;;;;;;6228413;28;20041;-79
2023/08/26 06:58:33;;;;;;;3.17;1.30;;;;;;;;;;6212194;28;20069;-80
2023/08/26 07:01:34;;;;;;;2.28;1.10;;;;;;;;;;6232782;28;20472;-81
2023/08/26 07:04:36;;;;;;;1.98;1.40;;;;;;;;;;6232819;28;20052;-80
2023/08/26 07:07:38;;;;;;;3.10;1.40;;;;;;;;;;6213784;28;20056;-78
2023/08/26 07:10:39;;;;;;;4.72;1.38;;;;;;;;;;6238602;28;20065;-78
2023/08/26 07:13:42;;;;;;;2.33;1.35;;;;;;;;;;6233899;28;20041;-79
2023/08/26 07:16:43;;;;;;;2.28;0.93;;;;;;;;;;6234149;28;20049;-79
2023/08/26 07:19:45;;;;;;;3.78;1.10;;;;;;;;;;6235676;28;20175;-80
2023/08/26 07:22:47;;;;;;;2.60;1.50;;;;;;;;;;6238251;28;20049;-78
2023/08/26 07:25:49;;;;;;;2.40;0.90;;;;;;;;;;6207592;28;20057;-79
2023/08/26 07:28:51;;;;;;;3.08;0.80;;;;;;;;;;6199322;28;20175;-79
2023/08/26 07:31:53;;;;;;;3.53;1.10;;;;;;;;;;6218008;28;20049;-79
2023/08/26 07:34:55;;;;;;;3.58;0.90;;;;;;;;;;6236755;28;20538;-80
2023/08/26 07:37:59;;;;;;;1.63;1.10;;;;;;;;;;6225985;28;20042;-77
2023/08/26 07:41:01;;;;;;;;;;;;;;;;;;6241255;28;20065;-79
2023/08/26 07:44:03;;;;;;;2.72;0.98;;;;;;;;;;6233379;28;19929;-78
2023/08/26 07:47:05;;;;;;;2.05;0.95;;;;;;;;;;6241318;28;20045;-78
2023/08/26 07:50:07;;;;;;;1.27;0.93;;;;;;;;;;6233908;28;20423;-75
2023/08/26 07:53:09;;;;;;;1.03;0.77;;;;;;;;;;6212095;28;20061;-77
2023/08/26 07:56:10;;;;;;;3.03;0.80;;;;;;;;;;6199192;28;20049;-77
2023/08/26 07:59:12;;;;;;;2.38;1.00;;;;;;;;;;6207439;28;20733;-79
2023/08/26 08:02:14;;;;;;;3.78;1.00;;;;;;;;;;6233168;28;20180;-79
2023/08/26 08:05:16;;;;;;;1.92;1.15;;;;;;;;;;6218950;28;20136;-79
2023/08/26 08:08:17;;;;;;;3.15;0.93;;;;;;;;;;6232978;28;20056;-80
2023/08/26 08:11:19;;;;;;;2.13;0.90;;;;;;;;;;6236629;28;20443;-77
2023/08/26 08:14:21;;;;;;;2.03;1.00;;;;;;;;;;6215522;28;20132;-76
2023/08/26 08:17:22;;;;;;;1.98;1.02;;;;;;;;;;6224900;28;20045;-75
2023/08/26 08:20:24;;;;;;;4.10;0.90;;;;;;;;;;6213009;28;20095;-75
2023/08/26 08:23:26;;;;;;;0.85;0.80;;;;;;;;;;6230920;28;20057;-76
2023/08/26 08:26:32;;;;;;;2.27;1.13;;;;;;;;;;6213762;28;20095;-77
2023/08/26 08:29:35;;;;;;;3.72;0.70;;;;;;;;;;6209013;28;20761;-76
2023/08/26 08:32:39;;;;;;;1.77;1.10;;;;;;;;;;6230888;28;20091;-76
2023/08/26 08:35:41;;;;;;;1.02;0.80;;;;;;;;;;6222241;28;20041;-76
2023/08/26 08:38:43;;;;;;;2.77;0.80;;;;;;;;;;6225896;28;20042;-75
2023/08/26 08:41:51;;;;;;;2.72;0.82;;;;;;;;;;6206969;28;20046;-74
2023/08/26 08:44:55;;;;;;;2.33;0.88;;;;;;;;;;6223257;28;20163;-75
2023/08/26 08:47:58;;;;;;;1.70;0.82;;;;;;;;;;6227314;28;20168;-75
2023/08/26 08:51:03;;;;;;;2.33;0.90;;;;;;;;;;6198010;28;20499;-74
2023/08/26 08:54:06;;;;;;;1.75;0.80;;;;;;;;;;6221730;28;20053;-74
2023/08/26 08:57:12;;;;;;;1.98;0.73;;;;;;;;;;6220996;28;20088;-74
2023/08/26 09:00:15;;;;;;;1.00;0.70;;;;;;;;;;6219675;28;20156;-76
2023/08/26 09:03:18;;;;;;;1.35;0.90;;;;;;;;;;6218323;28;20132;-75
2023/08/26 09:06:20;;;;;;;;;;;;;;;;;;6204164;28;20503;-74
2023/08/26 09:09:21;;;;;;;2.22;0.70;;;;;;;;;;6221123;28;19940;-74
2023/08/26 09:12:35;;;;;;;1.25;0.60;;;;;;;;;;6213647;28;20091;-75
2023/08/26 09:15:38;;;;;;;1.27;0.60;;;;;;;;;;6218131;28;20050;-75
2023/08/26 09:18:40;;;;;;;1.25;0.60;;;;;;;;;;6223319;28;20075;-75
2023/08/26 09:21:45;;;;;;;1.42;0.70;;;;;;;;;;6199572;28;20141;-75
2023/08/26 09:24:47;;;;;;;2.00;1.25;;;;;;;;;;6214525;28;20053;-75
2023/08/26 09:27:49;;;;;;;1.02;0.82;;;;;;;;;;6227142;28;20056;-77
2023/08/26 09:31:06;;;;;;;1.42;0.60;;;;;;;;;;6220379;28;20802;-76
2023/08/26 09:34:08;;;;;;;2.05;0.65;;;;;;;;;;6223786;28;20041;-76
2023/08/26 09:37:10;;;;;;;0.50;0.50;;;;;;;;;;6214192;28;20042;-77
2023/08/26 09:40:16;;;;;;;2.60;0.93;;;;;;;;;;6226778;28;20495;-77
2023/08/26 09:43:17;;;;;;;1.77;0.60;;;;;;;;;;6217911;28;20555;-75
2023/08/26 09:46:20;;;;;;;1.70;0.63;;;;;;;;;;6219707;28;20160;-77
2023/08/26 09:49:22;;;;;;;2.33;0.80;;;;;;;;;;6208411;28;20744;-77
2023/08/26 09:52:24;;;;;;;1.63;0.80;;;;;;;;;;6214139;28;20100;-79
2023/08/26 09:55:26;;;;;;;1.65;0.90;;;;;;;;;;6212686;28;20045;-77
2023/08/26 09:58:27;;;;;;;1.63;0.67;;;;;;;;;;6219466;28;20049;-77
2023/08/26 10:01:30;;;;;;;0.90;0.60;;;;;;;;;;6226797;28;20136;-77
2023/08/26 10:04:36;;;;;;;2.83;0.77;;;;;;;;;;6226067;28;20064;-77
2023/08/26 10:07:39;;;;;;;1.63;0.85;;;;;;;;;;6222629;28;20591;-77
2023/08/26 10:10:50;;;;;;;;;;;;;;;;;;6230379;28;20507;-77
2023/08/26 10:13:55;;;;;;;2.88;0.70;;;;;;;;;;6231786;28;20014;-76
2023/08/26 10:17:00;;;;;;;2.28;0.70;;;;;;;;;;6229862;28;20483;-77
2023/08/26 10:20:03;;;;;;;1.38;0.57;;;;;;;;;;6227374;28;20066;-77
2023/08/26 10:23:06;;;;;;;3.53;0.90;;;;;;;;;;6226955;28;20046;-78
2023/08/26 10:26:08;;;;;;;;;;;;;;;;;;6214241;28;20040;-79
2023/08/26 10:29:10;;;;;;;0.85;0.50;;;;;;;;;;6224513;28;20046;-76
2023/08/26 10:32:17;;;;;;;0.98;0.60;;;;;;;;;;6225484;28;20510;-77
2023/08/26 10:35:19;;;;;;;3.45;0.70;;;;;;;;;;6207027;28;20476;-77
2023/08/26 10:38:21;;;;;;;1.10;0.60;;;;;;;;;;6225979;28;20522;-78
2023/08/26 10:41:23;;;;;;;1.67;0.57;;;;;;;;;;6211705;28;20049;-77
2023/08/26 10:44:36;;;;;;;2.67;0.70;;;;;;;;;;6232271;28;20053;-78
2023/08/26 10:47:45;;;;;;;0.98;0.70;;;;;;;;;;6230839;28;20049;-76
2023/08/26 10:51:01;;;;;;;1.52;0.70;;;;;;;;;;6212417;28;20037;-78
2023/08/26 10:54:04;;;;;;;1.52;0.55;;;;;;;;;;6215148;28;20069;-77
2023/08/26 10:57:07;;;;;;;1.38;0.50;;;;;;;;;;6229223;28;20514;-75
2023/08/26 11:00:09;;;;;;;1.92;0.80;;;;;;;;;;6228623;28;20064;-76
2023/08/26 11:03:13;;;;;;;2.80;0.60;;;;;;;;;;6229039;28;20053;-77
2023/08/26 11:06:21;;;;;;;1.08;0.63;;;;;;;;;;6226067;28;20591;-76
2023/08/26 11:09:23;;;;;;;1.27;0.65;;;;;;;;;;6221900;28;20045;-75
2023/08/26 11:12:27;;;;;;;1.80;1.23;;;;;;;;;;6227371;28;20840;-76
2023/08/26 11:15:35;;;;;;;2.42;0.60;;;;;;;;;;6229259;28;20057;-77
2023/08/26 11:18:37;;;;;;;1.38;0.60;;;;;;;;;;6205718;28;20081;-77
2023/08/26 11:21:39;;;;;;;1.20;0.63;;;;;;;;;;6223517;28;20389;-77
2023/08/26 11:24:47;;;;;;;0.87;0.60;;;;;;;;;;6228568;28;20490;-77
2023/08/26 11:27:49;;;;;;;0.82;0.70;;;;;;;;;;6212199;28;20041;-77
2023/08/26 11:30:51;;;;;;;1.23;0.60;;;;;;;;;;6186953;28;20184;-76
2023/08/26 11:33:54;;;;;;;2.80;0.60;;;;;;;;;;6214233;28;20121;-78
2023/08/26 11:36:55;;;;;;;0.95;0.60;;;;;;;;;;6229461;28;20065;-77
2023/08/26 11:40:01;;;;;;;3.00;0.70;;;;;;;;;;6196322;28;20054;-77
2023/08/26 11:43:09;;;;;;;3.30;0.80;;;;;;;;;;6223008;28;20049;-76
2023/08/26 11:46:11;;;;;;;0.90;0.70;;;;;;;;;;6227073;28;20053;-77
2023/08/26 11:49:14;;;;;;;1.55;0.73;;;;;;;;;;6238360;28;20056;-79
2023/08/26 11:52:16;;;;;;;1.98;0.80;;;;;;;;;;6228309;28;20105;-79
2023/08/26 11:55:17;;;;;;;3.53;0.60;;;;;;;;;;6231539;28;20132;-79
2023/08/26 11:58:20;;;;;;;1.60;0.60;;;;;;;;;;6240411;28;20056;-78
2023/08/26 12:01:25;;;;;;;2.25;0.88;;;;;;;;;;6226599;28;20068;-79
2023/08/26 12:04:28;;;;;;;0.82;0.70;;;;;;;;;;6231884;28;20092;-80
2023/08/26 12:07:30;;;;;;;2.35;0.82;;;;;;;;;;6228502;28;20120;-80
2023/08/26 12:10:32;;;;;;;1.77;0.70;;;;;;;;;;6238198;28;20057;-80
2023/08/26 12:13:38;;;;;;;1.95;0.70;;;;;;;;;;6223645;28;20057;-78
2023/08/26 12:16:40;;;;;;;3.80;0.90;;;;;;;;;;6228109;28;20104;-79
2023/08/26 12:19:41;;;;;;;1.30;0.60;;;;;;;;;;6241981;28;20578;-80
2023/08/26 12:22:43;;;;;;;1.93;1.20;;;;;;;;;;6229951;28;20201;-79
2023/08/26 12:25:46;;;;;;;1.95;1.50;;;;;;;;;;6223956;28;20139;-80
2023/08/26 12:28:49;;;;;;;3.45;0.80;;;;;;;;;;6221731;28;20042;-79
2023/08/26 12:31:51;;;;;;;;;;;;;;;;;;6231156;28;20045;-78
2023/08/26 12:34:52;;;;;;;3.45;0.90;;;;;;;;;;6230167;28;19921;-80
2023/08/26 12:37:54;;;;;;;1.20;0.80;;;;;;;;;;6200119;28;20065;-81
2023/08/26 12:40:58;;;;;;;1.60;0.77;;;;;;;;;;6217029;28;20389;-81
2023/08/26 12:43:59;;;;;;;2.42;0.88;;;;;;;;;;6237514;28;20048;-80
2023/08/26 12:47:01;;;;;;;2.65;1.13;;;;;;;;;;6216266;28;20116;-81
2023/08/26 12:50:03;;;;;;;2.17;1.20;;;;;;;;;;6220260;28;20068;-80
2023/08/26 12:53:05;;;;;;;4.47;1.73;;;;;;;;;;6214980;28;20091;-80
2023/08/26 12:56:07;;;;;;;3.03;1.40;;;;;;;;;;6239426;28;20080;-79
2023/08/26 12:59:10;;;;;;;1.13;0.80;;;;;;;;;;6216655;28;20529;-79
2023/08/26 13:02:12;;;;;;;3.08;1.88;;;;;;;;;;6233106;28;20611;-81
2023/08/26 13:05:13;;;;;;;3.30;1.40;;;;;;;;;;6231276;28;20526;-77
2023/08/26 13:08:15;;;;;;;1.15;0.88;;;;;;;;;;6212461;28;20152;-76
2023/08/26 13:11:16;;;;;;;2.40;1.10;;;;;;;;;;6223633;28;20163;-76
2023/08/26 13:14:18;;;;;;;2.47;0.80;;;;;;;;;;6225061;28;20060;-76
2023/08/26 13:17:20;;;;;;;2.35;0.90;;;;;;;;;;6226981;28;20139;-77
2023/08/26 13:20:22;;;;;;;1.43;0.80;;;;;;;;;;6209032;28;20042;-76
2023/08/26 13:23:23;;;;;;;2.83;1.07;;;;;;;;;;6211051;28;20054;-77
2023/08/26 13:26:25;;;;;;;3.08;0.68;;;;;;;;;;6227823;28;20475;-77
2023/08/26 13:29:27;;;;;;;1.40;0.70;;;;;;;;;;6228955;28;20052;-75
2023/08/26 13:32:28;;;;;;;0.97;0.70;;;;;;;;;;6224096;28;20041;-76
2023/08/26 13:35:31;;;;;;;1.57;0.80;;;;;;;;;;6225329;28;20184;-77
2023/08/26 13:38:32;;;;;;;0.80;0.80;;;;;;;;;;6227104;28;20054;-76
2023/08/26 13:41:36;;;;;;;1.83;0.90;;;;;;;;;;6228573;28;20136;-76
2023/08/26 13:44:38;;;;;;;1.85;0.90;;;;;;;;;;6226311;28;20058;-76
2023/08/26 13:47:39;;;;;;;1.70;0.70;;;;;;;;;;6229708;28;20532;-80
2023/08/26 13:50:41;;;;;;;1.27;0.88;;;;;;;;;;6235586;28;20038;-79
2023/08/26 13:53:42;;;;;;;1.80;0.90;;;;;;;;;;6238171;28;20044;-80
2023/08/26 13:56:44;;;;;;;1.83;1.05;;;;;;;;;;6239286;28;20052;-80
2023/08/26 13:59:46;;;;;;;1.50;0.80;;;;;;;;;;6234806;28;20065;-80
2023/08/26 14:02:48;;;;;;;1.85;0.90;;;;;;;;;;6232627;28;20411;-80
2023/08/26 14:05:50;;;;;;;1.95;0.95;;;;;;;;;;6214708;28;20053;-80
2023/08/26 14:08:52;;;;;;;1.88;0.70;;;;;;;;;;6214064;28;20095;-79
2023/08/26 14:11:53;;;;;;;2.37;0.90;;;;;;;;;;6216413;28;20133;-79
2023/08/26 14:14:55;;;;;;;1.43;0.80;;;;;;;;;;6211824;28;20056;-78
2023/08/26 14:17:57;;;;;;;0.97;0.80;;;;;;;;;;6231090;28;20049;-77
2023/08/26 14:20:59;;;;;;;1.83;0.80;;;;;;;;;;6234485;28;20443;-76
2023/08/26 14:24:00;;;;;;;1.57;0.80;;;;;;;;;;6234082;28;20052;-78
2023/08/26 14:27:02;;;;;;;2.33;0.80;;;;;;;;;;6229272;28;20437;-78
2023/08/26 14:30:04;;;;;;;1.97;0.80;;;;;;;;;;6219084;28;20041;-76
2023/08/26 14:33:06;;;;;;;2.85;1.23;;;;;;;;;;6226069;28;20073;-77
2023/08/26 14:36:08;;;;;;;2.50;0.70;;;;;;;;;;6226165;28;20056;-77
2023/08/26 14:39:09;;;;;;;0.80;0.70;;;;;;;;;;6201054;28;20507;-77
2023/08/26 14:42:11;;;;;;;1.10;0.80;;;;;;;;;;6230293;28;20103;-76
2023/08/26 14:45:13;;;;;;;1.15;0.88;;;;;;;;;;6224132;28;20456;-77
2023/08/26 14:48:15;;;;;;;1.13;0.90;;;;;;;;;;6227989;28;20175;-77
2023/08/26 14:51:16;;;;;;;1.55;1.30;;;;;;;;;;6223561;28;20052;-79
2023/08/26 14:54:18;;;;;;;2.27;1.10;;;;;;;;;;6233101;28;20053;-78
2023/08/26 14:57:20;;;;;;;1.13;0.80;;;;;;;;;;6233024;28;20045;-76
2023/08/26 15:00:23;;;;;;;1.90;0.70;;;;;;;;;;6218204;28;20053;-78
2023/08/26 15:03:25;;;;;;;1.77;1.00;;;;;;;;;;6235468;28;20536;-77
2023/08/26 15:06:27;;;;;;;1.20;0.80;;;;;;;;;;6230498;28;20049;-78
2023/08/26 15:09:28;;;;;;;3.63;1.08;;;;;;;;;;6213817;28;20053;-77
2023/08/26 15:12:31;;;;;;;1.20;0.82;;;;;;;;;;6199631;28;20223;-77
2023/08/26 15:15:33;;;;;;;2.08;1.42;;;;;;;;;;6233150;28;20081;-77
2023/08/26 15:18:34;;;;;;;1.70;0.90;;;;;;;;;;6231400;28;20053;-77
2023/08/26 15:21:36;;;;;;;1.57;1.00;;;;;;;;;;6219691;28;20478;-79
2023/08/26 15:24:38;;;;;;;2.75;0.93;;;;;;;;;;6209016;28;20141;-78
2023/08/26 15:27:40;;;;;;;2.90;1.15;;;;;;;;;;6204184;28;20085;-77
2023/08/26 15:30:50;;;;;;;2.20;1.15;;;;;;;;;;6235127;28;20049;-75
2023/08/26 15:33:52;;;;;;;2.88;1.27;;;;;;;;;;6234435;28;20148;-78
2023/08/26 15:36:54;;;;;;;1.65;0.90;;;;;;;;;;6211839;28;20385;-77
2023/08/26 15:39:56;;;;;;;1.75;1.00;;;;;;;;;;6202492;28;20084;-78
2023/08/26 15:42:59;;;;;;;2.35;0.90;;;;;;;;;;6215551;28;20116;-78
2023/08/26 15:46:01;;;;;;;;;;;;;;;;;;6220975;28;20068;-78
2023/08/26 15:49:06;;;;;;;2.20;1.00;;;;;;;;;;6221823;28;20294;-76
2023/08/26 15:52:10;;;;;;;0.88;0.80;;;;;;;;;;6237118;28;20056;-79
2023/08/26 15:55:12;;;;;;;1.75;0.85;;;;;;;;;;6215339;28;20046;-77
2023/08/26 15:58:14;;;;;;;2.07;1.00;;;;;;;;;;6222824;28;20499;-78
2023/08/26 16:01:16;;;;;;;4.63;0.95;;;;;;;;;;6235498;28;20076;-78
2023/08/26 16:04:19;;;;;;;1.60;1.00;;;;;;;;;;6232313;28;20041;-78
2023/08/26 16:07:21;;;;;;;1.17;0.80;;;;;;;;;;6233542;28;20053;-77
2023/08/26 16:10:22;;;;;;;2.20;1.10;;;;;;;;;;6238077;28;20115;-78
2023/08/26 16:13:24;;;;;;;2.57;1.10;;;;;;;;;;6217338;28;20049;-79
2023/08/26 16:16:27;;;;;;;0.90;0.90;;;;;;;;;;6235799;28;20038;-78
2023/08/26 16:19:30;;;;;;;1.83;0.93;;;;;;;;;;6234604;28;20056;-78
2023/08/26 16:22:31;;;;;;;0.97;0.80;;;;;;;;;;6239908;28;20096;-74
2023/08/26 16:25:33;;;;;;;1.40;1.00;;;;;;;;;;6236788;28;20061;-78
2023/08/26 16:28:35;;;;;;;1.80;1.10;;;;;;;;;;6228716;28;20045;-77
2023/08/26 16:31:36;;;;;;;1.57;1.10;;;;;;;;;;6229347;28;20076;-77
2023/08/26 16:34:39;;;;;;;1.85;1.20;;;;;;;;;;6227026;28;20045;-75
2023/08/26 16:37:40;;;;;;;3.40;0.90;;;;;;;;;;6228448;28;20049;-76
2023/08/26 16:40:42;;;;;;;2.80;1.40;;;;;;;;;;6229269;28;20056;-77
2023/08/26 16:43:44;;;;;;;1.73;1.10;;;;;;;;;;6232066;28;20045;-74
2023/08/26 16:46:45;;;;;;;1.02;0.88;;;;;;;;;;6217608;28;20077;-75
2023/08/26 16:49:48;;;;;;;2.97;1.00;;;;;;;;;;6223410;28;20519;-77
2023/08/26 16:52:50;;;;;;;4.38;1.00;;;;;;;;;;6232183;28;20242;-75
2023/08/26 16:55:52;;;;;;;4.72;1.55;;;;;;;;;;6233708;28;20385;-75
2023/08/26 16:58:53;;;;;;;2.60;1.08;;;;;;;;;;6224967;28;20050;-76
2023/08/26 17:01:55;;;;;;;1.70;1.20;;;;;;;;;;6230100;28;20061;-74
2023/08/26 17:04:57;;;;;;;1.90;1.10;;;;;;;;;;6224959;28;20506;-76
2023/08/26 17:08:00;;;;;;;2.00;1.23;;;;;;;;;;6225787;28;20132;-76
2023/08/26 17:11:03;;;;;;;5.07;1.50;;;;;;;;;;6225974;28;20046;-76
2023/08/26 17:14:05;;;;;;;6.05;3.38;;;;;;;;;;6224754;28;20042;-77
2023/08/26 17:17:07;;;;;;;1.75;0.90;;;;;;;;;;6205726;28;20628;-77
2023/08/26 17:20:09;;;;;;;1.48;0.90;;;;;;;;;;6224175;28;20171;-77
2023/08/26 17:23:11;;;;;;;2.10;1.42;;;;;;;;;;6212595;28;20163;-76
2023/08/26 17:26:13;;;;;;;1.42;1.05;;;;;;;;;;6225412;28;20045;-77
2023/08/26 17:29:15;;;;;;;1.60;1.15;;;;;;;;;;6224074;28;20421;-78
2023/08/26 17:32:16;;;;;;;2.50;1.17;;;;;;;;;;6224771;28;20041;-78
2023/08/26 17:35:18;;;;;;;1.58;1.00;;;;;;;;;;6225549;28;20053;-78
2023/08/26 17:38:19;;;;;;;2.63;0.93;;;;;;;;;;6224311;28;20077;-79
2023/08/26 17:41:21;;;;;;;2.83;1.20;;;;;;;;;;6226917;28;20041;-79
2023/08/26 17:44:24;;;;;;;2.92;1.30;;;;;;;;;;6226007;28;20061;-80
2023/08/26 17:47:25;;;;;;;2.00;1.00;;;;;;;;;;6225991;28;20049;-78
2023/08/26 17:50:27;;;;;;;1.85;1.00;;;;;;;;;;6179511;28;20072;-79
2023/08/26 17:53:29;;;;;;;1.73;1.10;;;;;;;;;;6204491;28;20077;-79
2023/08/26 17:56:30;;;;;;;3.15;1.20;;;;;;;;;;6222365;28;20054;-79
2023/08/26 17:59:32;;;;;;;1.10;0.90;;;;;;;;;;6226105;28;20056;-79
2023/08/26 18:02:34;;;;;;;1.95;1.02;;;;;;;;;;6225300;28;20535;-77
2023/08/26 18:05:36;;;;;;;4.55;3.10;;;;;;;;;;6224047;28;20046;-79
2023/08/26 18:08:38;;;;;;;5.35;2.80;;;;;;;;;;6228280;28;20179;-78
2023/08/26 18:11:40;;;;;;;1.60;1.30;;;;;;;;;;6227601;28;20197;-79